Terminal Aerodrome Forecast
Issued by NWS

Home | Current Version | Previous Version | Text Only | Print | Product List | Glossary On
Versions: 1 2 3 4 5 6 7 8 9 10 11 12 13
000
FTUS43 KMPX 021801 AAA
TAFRWF
TAF AMD
KRWF 021801Z 0218/0318 18013KT P6SM BKN250
     FM021900 16015G23KT P6SM FEW070 BKN100
     FM030500 16014KT 4SM -SN OVC030
     FM030700 16009KT 1 1/2SM -SN BR OVC008
     FM031200 25013KT 1/2SM SN FZFG OVC005
     FM031600 33021G31KT 1/4SM SN BLSN OVC005=

USA.gov is the U.S. government's official web portal to all federal, state and local government web resources and services.